| Date | Time | Temp. (oF) | Dew Point (oF) | Rel. Hum. (%) | Press. (in.) | Wind Dir. | Wind Speed (mph) | Hourly Rainfall (in.) |
|
|---|---|---|---|---|---|---|---|---|---|
| 1 | 06/18 | 00:00 | 61 | 54 | 78 | 29.85 | WSW | 0 | 0.00 |
| 2 | 06/17 | 23:00 | 63 | 53 | 72 | 29.84 | WSW | 0 | 0.00 |
| 3 | 06/17 | 22:00 | 65 | 52 | 64 | 29.82 | WSW | 0 | 0.00 |
| 4 | 06/17 | 21:00 | 68 | 53 | 59 | 29.81 | W | 1 | 0.00 |
| 5 | 06/17 | 20:00 | 70 | 51 | 53 | 29.80 | NNW | 5 | 0.00 |
| 6 | 06/17 | 19:00 | 70 | 52 | 54 | 29.78 | WSW | 8 | 0.00 |
| 7 | 06/17 | 18:00 | 73 | 53 | 50 | 29.76 | NW | 5 | 0.00 |
| 8 | 06/17 | 17:00 | 75 | 52 | 46 | 29.74 | W | 4 | 0.00 |
| 9 | 06/17 | 16:00 | 76 | 54 | 47 | 29.74 | SSW | 6 | 0.00 |
| 10 | 06/17 | 15:00 | 73 | 51 | 47 | 29.75 | WSW | 10 | 0.00 |
| 11 | 06/17 | 14:00 | 73 | 53 | 51 | 29.75 | WSW | 5 | 0.00 |
| 12 | 06/17 | 13:00 | 70 | 53 | 57 | 29.76 | WSW | 8 | 0.00 |
| 13 | 06/17 | 12:00 | 70 | 54 | 59 | 29.76 | WNW | 3 | 0.00 |
| 14 | 06/17 | 11:00 | 69 | 53 | 57 | 29.76 | WNW | 6 | 0.00 |
| 15 | 06/17 | 10:00 | 68 | 53 | 60 | 29.76 | WNW | 4 | 0.00 |
| 16 | 06/17 | 09:00 | 66 | 55 | 68 | 29.76 | NW | 2 | 0.00 |
| 17 | 06/17 | 08:00 | 62 | 53 | 75 | 29.74 | W | 4 | 0.00 |
| 18 | 06/17 | 07:00 | 58 | 54 | 87 | 29.74 | S | 2 | 0.00 |
| 19 | 06/17 | 06:00 | 56 | 52 | 87 | 29.73 | S | 2 | 0.00 |
| 20 | 06/17 | 05:00 | 57 | 51 | 82 | 29.72 | SSW | 0 | 0.00 |
| 21 | 06/17 | 04:00 | 60 | 50 | 71 | 29.71 | SW | 0 | 0.00 |
| 22 | 06/17 | 03:00 | 62 | 50 | 66 | 29.72 | WSW | 3 | 0.00 |
| 23 | 06/17 | 02:00 | 65 | 52 | 65 | 29.72 | NW | 3 | 0.00 |
| 24 | 06/17 | 01:00 | 65 | 56 | 74 | 29.72 | SW | 3 | 0.00 |